Excalibur — ONCE — position and weather

sailwx.info

Track history (hours):
 
Tides and Currents Weather Stations Pressure Air Temp Water Temp Dewpoint Dewpoint Depression Visibility Wind Speed Wind Dir Waves Ship Positions

Excalibur

Last reported at 2018-Jun-18 00:00 UTC. Time now 2018-Jun-18 00:22 UTC.
Position N 40°58' E 002°22'.

Length 277 m; draft 11.2 m.

Type: Ship. MMSI: 205421000.

Date/timePositionNaut miles runAvg speedWind from/ knotsBaromVisibWave heightAir tempDewpointWater temp
2018-Jun-18 00:00N 40°58' E 002°22'713.9
2018-Jun-17 23:30N 41°01' E 002°30'713.8
2018-Jun-17 23:00N 41°04' E 002°38'7 1.9
2018-Jun-17 19:22N 41°11' E 002°37'513.3
2018-Jun-17 18:59N 41°09' E 002°31'613.3
2018-Jun-17 18:31N 41°06' E 002°24'10 9.6
2018-Jun-17 17:26N 40°59' E 002°14'511.9
2018-Jun-17 17:00N 41°03' E 002°18'713.3
2018-Jun-17 16:30N 41°06' E 002°26'5 1.3
2018-Jun-17 13:03N 41°07' E 002°32'112.8
2018-Jun-17 12:59N 41°07' E 002°31'612.7
2018-Jun-17 12:29N 41°04' E 002°23'2112.4
2018-Jun-17 10:47N 40°48' E 002°05'9 9.0
2018-Jun-17 09:44N 40°50' E 001°53'512.0
2018-Jun-17 09:17N 40°55' E 001°57'413.3
2018-Jun-17 08:57N 40°56' E 002°03'813.8
2018-Jun-17 08:23N 40°59' E 002°12'614.0
2018-Jun-17 07:57N 41°02' E 002°19'613.9
2018-Jun-17 07:30N 41°05' E 002°27'26 5.0
2018-Jun-17 02:22N 40°54' E 002°58'814.0
2018-Jun-17 01:46N 40°50' E 002°48'413.9
2018-Jun-17 01:28N 40°48' E 002°43'713.7
2018-Jun-17 00:57N 40°45' E 002°34'713.6
2018-Jun-17 00:26N 40°42' E 002°26'2312.8
2018-Jun-16 22:40N 40°33' E 001°58'1013.7
2018-Jun-16 21:55N 40°42' E 001°53'813.4
2018-Jun-16 21:19N 40°50' E 001°48'412.1
2018-Jun-16 20:58N 40°53' E 001°52'813.6
2018-Jun-16 20:24N 40°56' E 002°01'613.8
2018-Jun-16 20:00N 40°59' E 002°08'713.8
2018-Jun-16 19:31N 41°02' E 002°16'713.9
2018-Jun-16 19:00N 41°05' E 002°24'713.7
2018-Jun-16 18:30N 41°08' E 002°32'713.9
2018-Jun-16 18:00N 41°11' E 002°40'5 2.1
2018-Jun-16 15:38N 41°10' E 002°34'212.7
2018-Jun-16 15:30N 41°09' E 002°32'712.6
2018-Jun-16 14:59N 41°06' E 002°24'612.5
2018-Jun-16 14:30N 41°04' E 002°17'712.8
2018-Jun-16 13:57N 41°01' E 002°09'613.2
2018-Jun-16 13:30N 40°58' E 002°02'813.4
2018-Jun-16 12:53N 40°54' E 001°52'1110.0
2018-Jun-16 11:47N 40°55' E 002°06'613.2
2018-Jun-16 11:20N 40°58' E 002°13'513.5
2018-Jun-16 11:00N 41°00' E 002°18'713.7
2018-Jun-16 10:30N 41°04' E 002°26'8 1.7
2018-Jun-16 05:41N 41°05' E 002°37'313.9
2018-Jun-16 05:26N 41°04' E 002°33'713.4
2018-Jun-16 04:55N 41°02' E 002°24'1313.1
2018-Jun-16 03:54N 40°56' E 002°09'7 2.5
2018-Jun-16 01:18N 40°49' E 002°07'513.7
2018-Jun-16 00:57N 40°52' E 002°13'713.5
2018-Jun-16 00:24N 40°55' E 002°22'613.6
2018-Jun-15 23:56N 40°58' E 002°29'613.9
2018-Jun-15 23:30N 41°00' E 002°36'2613.7
2018-Jun-15 21:38N 41°15' E 003°05'313.2
2018-Jun-15 21:27N 41°17' E 003°03'2012.1
2018-Jun-15 19:47N 41°11' E 002°38'412.4
2018-Jun-15 19:30N 41°10' E 002°33'612.3
2018-Jun-15 19:00N 41°07' E 002°26'612.7
2018-Jun-15 18:30N 41°05' E 002°18'913.1
2018-Jun-15 17:47N 41°00' E 002°07'913.3
2018-Jun-15 17:05N 40°55' E 001°57'213.0
2018-Jun-15 16:58N 40°54' E 001°56'812.5
2018-Jun-15 16:20N 40°46' E 001°60'411.7
2018-Jun-15 16:00N 40°44' E 001°56'5 9.2
2018-Jun-15 15:26N 40°49' E 001°55'613.4
2018-Jun-15 15:00N 40°52' E 002°02'713.3
2018-Jun-15 14:30N 40°55' E 002°10'713.3
2018-Jun-15 14:00N 40°58' E 002°17'713.4
2018-Jun-15 13:30N 41°01' E 002°25'612.9
2018-Jun-15 13:00N 41°04' E 002°33'5 1.2
2018-Jun-15 08:44N 41°09' E 002°35'313.1
2018-Jun-15 08:30N 41°08' E 002°31'612.7
2018-Jun-15 08:00N 41°05' E 002°24'612.6
2018-Jun-15 07:30N 41°02' E 002°16'812.4
2018-Jun-15 06:50N 40°59' E 002°06'1612.6
2018-Jun-15 05:35N 40°51' E 001°48'812.3
2018-Jun-15 04:56N 40°44' E 001°51'4710.6
2018-Jun-15 00:30N 40°51' E 002°53'20 4.9
2018-Jun-14 20:29N 41°06' E 002°37'613.8
2018-Jun-14 20:01N 41°03' E 002°29'1313.4
2018-Jun-14 19:02N 40°57' E 002°14'013.4
2018-Jun-14 19:00N 40°57' E 002°14'1113.1
2018-Jun-14 18:07N 40°53' E 001°60'212.4
2018-Jun-14 17:56N 40°54' E 001°57'511.4
2018-Jun-14 17:29N 40°58' E 002°02'713.3
2018-Jun-14 16:58N 41°01' E 002°10'613.5
2018-Jun-14 16:31N 41°04' E 002°17'713.2
2018-Jun-14 16:00N 41°07' E 002°25'51 4.9
2018-Jun-14 05:36N 40°16' E 002°33'212.1
2018-Jun-14 05:26N 40°17' E 002°35'4511.7
2018-Jun-14 01:36N 41°01' E 002°20'212.8
2018-Jun-14 01:25N 41°02' E 002°17'4712.4
2018-Jun-13 21:39N 40°17' E 002°32'212.9
2018-Jun-13 21:30N 40°15' E 002°33'712.9
2018-Jun-13 20:57N 40°09' E 002°38'1412.5
2018-Jun-13 19:52N 40°12' E 002°55'1212.6
2018-Jun-13 18:54N 40°19' E 003°08'714.2
2018-Jun-13 18:24N 40°25' E 003°04'3313.8
2018-Jun-13 16:02N 40°55' E 002°46'213.9
2018-Jun-13 15:53N 40°57' E 002°45'613.5
2018-Jun-13 15:28N 41°02' E 002°42'1012.9
2018-Jun-13 14:43N 41°03' E 002°29'313.0
2018-Jun-13 14:30N 41°03' E 002°25'611.1
2018-Jun-13 13:58N 40°60' E 002°19'612.3
2018-Jun-13 13:30N 40°55' E 002°22'712.4
2018-Jun-13 12:58N 40°49' E 002°25'2512.6
2018-Jun-13 10:58N 40°26' E 002°39'613.1
2018-Jun-13 10:29N 40°20' E 002°42'713.6
2018-Jun-13 10:00N 40°14' E 002°45'612.3
2018-Jun-13 09:30N 40°08' E 002°47'611.2
2018-Jun-13 09:00N 40°08' E 002°39'5313.0
2018-Jun-13 04:57N 40°56' E 002°09'2711.3
2018-Jun-13 02:33N 40°34' E 002°31'512.5
2018-Jun-13 02:10N 40°30' E 002°34'412.2
2018-Jun-13 01:49N 40°27' E 002°38'412.3
2018-Jun-13 01:30N 40°24' E 002°41'1411.4
2018-Jun-13 00:16N 40°16' E 002°56'312.7
2018-Jun-12 23:59N 40°19' E 002°57'3813.4
2018-Jun-12 21:11N 40°55' E 002°42'313.9
2018-Jun-12 21:00N 40°57' E 002°41'713.8
2018-Jun-12 20:30N 41°03' E 002°37'611.5
2018-Jun-12 20:01N 41°06' E 002°30'712.9
2018-Jun-12 19:30N 41°04' E 002°22'612.9
2018-Jun-12 19:00N 41°02' E 002°14'712.6
2018-Jun-12 18:26N 40°59' E 002°05'4112.3
2018-Jun-12 15:03N 40°24' E 002°35'112.5
2018-Jun-12 15:00N 40°23' E 002°35'712.8
2018-Jun-12 14:29N 40°18' E 002°40'613.1
2018-Jun-12 14:00N 40°13' E 002°45'5 8.6
2018-Jun-12 13:25N 40°14' E 002°52'613.2
2018-Jun-12 12:57N 40°20' E 002°49'813.3
2018-Jun-12 12:23N 40°27' E 002°46'513.5
2018-Jun-12 12:01N 40°32' E 002°44'713.9
2018-Jun-12 11:30N 40°38' E 002°41'2014.0
2018-Jun-12 10:03N 40°57' E 002°32'213.8
2018-Jun-12 09:57N 40°59' E 002°31'3010.5
2018-Jun-12 07:03N 40°28' E 002°35'113.6
2018-Jun-12 07:01N 40°28' E 002°35'1013.5
2018-Jun-12 06:17N 40°18' E 002°38'413.6
2018-Jun-12 06:00N 40°15' E 002°40'510.7
2018-Jun-12 05:30N 40°10' E 002°37'5013.5
2018-Jun-12 01:47N 40°59' E 002°27'413.0
2018-Jun-12 01:29N 41°03' E 002°25'5712.7
2018-Jun-11 21:01N 40°06' E 002°34'014.1
2018-Jun-11 21:00N 40°06' E 002°34'1313.4
2018-Jun-11 20:00N 40°05' E 002°51'5 9.6
2018-Jun-11 19:27N 40°10' E 002°55'713.5
2018-Jun-11 18:58N 40°11' E 002°46'612.3
2018-Jun-11 18:30N 40°15' E 002°40'713.6
2018-Jun-11 18:00N 40°21' E 002°38'714.1
2018-Jun-11 17:30N 40°28' E 002°36'1414.0
2018-Jun-11 16:31N 40°41' E 002°30'713.6
2018-Jun-11 16:00N 40°48' E 002°30'713.9
2018-Jun-11 15:31N 40°55' E 002°26'714.0
2018-Jun-11 15:01N 41°01' E 002°22'610.5
2018-Jun-11 14:26N 40°58' E 002°15'713.6
2018-Jun-11 13:54N 40°51' E 002°15'1812.7
2018-Jun-11 12:28N 40°37' E 002°31'913.3
2018-Jun-11 11:48N 40°30' E 002°38'413.1
2018-Jun-11 11:29N 40°27' E 002°42'613.2
2018-Jun-11 11:00N 40°22' E 002°47'811.3
2018-Jun-11 10:19N 40°18' E 002°56'1413.4
2018-Jun-11 09:17N 40°31' E 002°51'3513.8
2018-Jun-11 06:45N 41°04' E 002°34'312.4
2018-Jun-11 06:30N 41°05' E 002°30'3112.3
2018-Jun-11 04:00N 40°34' E 002°35'713.6
2018-Jun-11 03:29N 40°29' E 002°40'713.8
2018-Jun-11 03:00N 40°23' E 002°44'711.5
2018-Jun-11 02:22N 40°18' E 002°52'612.8
2018-Jun-11 01:53N 40°25' E 002°51'513.9
2018-Jun-11 01:31N 40°29' E 002°48'814.0
2018-Jun-11 00:57N 40°36' E 002°43'3214.0
2018-Jun-10 22:38N 41°04' E 002°22'213.3
2018-Jun-10 22:28N 41°05' E 002°19'11 5.5
2018-Jun-10 20:23N 40°59' E 002°06'4412.7
2018-Jun-10 16:55N 40°21' E 002°35'613.2
2018-Jun-10 16:30N 40°16' E 002°38'713.5
2018-Jun-10 15:58N 40°09' E 002°37'4112.4
2018-Jun-10 12:39N 40°49' E 002°30'313.7
2018-Jun-10 12:27N 40°52' E 002°30'613.8
2018-Jun-10 12:01N 40°58' E 002°29'713.7
2018-Jun-10 11:30N 41°05' E 002°29'5 9.8
2018-Jun-10 11:00N 41°03' E 002°35'713.5
2018-Jun-10 10:30N 40°57' E 002°38'1713.4
2018-Jun-10 09:14N 40°40' E 002°43'614.0
2018-Jun-10 08:47N 40°34' E 002°44'1013.8
2018-Jun-10 08:03N 40°24' E 002°44'114.1
2018-Jun-10 07:58N 40°23' E 002°43'714.0
2018-Jun-10 07:28N 40°16' E 002°43'510.9
2018-Jun-10 07:00N 40°15' E 002°36'4315.5
2018-Jun-10 04:14N 40°57' E 002°29'415.6
2018-Jun-10 04:00N 41°01' E 002°29'713.3
2018-Jun-10 03:30N 41°07' E 002°32'1414.9
2018-Jun-10 02:34N 40°54' E 002°39'116.4
2018-Jun-10 02:30N 40°53' E 002°39'816.1
2018-Jun-10 02:00N 40°45' E 002°41'816.0
2018-Jun-10 01:30N 40°37' E 002°43'1116.0
2018-Jun-10 00:51N 40°27' E 002°45'716.1
2018-Jun-10 00:26N 40°20' E 002°47'714.9
2018-Jun-09 23:58N 40°14' E 002°45'612.7
2018-Jun-09 23:28N 40°16' E 002°37'1016.1
2018-Jun-09 22:53N 40°25' E 002°33'716.0
2018-Jun-09 22:28N 40°31' E 002°30'716.2
2018-Jun-09 22:00N 40°39' E 002°31'815.8
2018-Jun-09 21:30N 40°47' E 002°30'815.8
2018-Jun-09 21:00N 40°54' E 002°27'815.8
2018-Jun-09 20:30N 41°01' E 002°23'714.0
2018-Jun-09 20:00N 41°06' E 002°30'815.9
2018-Jun-09 19:30N 41°03' E 002°39'2315.3
2018-Jun-09 17:58N 40°40' E 002°32'1315.5
2018-Jun-09 17:07N 40°28' E 002°40'215.8
2018-Jun-09 16:59N 40°27' E 002°41'916.0
2018-Jun-09 16:27N 40°19' E 002°46'913.6
2018-Jun-09 15:49N 40°13' E 002°54'1314.7
2018-Jun-09 14:57N 40°25' E 002°51'816.0
2018-Jun-09 14:27N 40°33' E 002°47'716.0
2018-Jun-09 14:00N 40°40' E 002°44'1316.0
2018-Jun-09 13:13N 40°51' E 002°35'316.2
2018-Jun-09 13:00N 40°53' E 002°32'816.2
2018-Jun-09 12:30N 40°60' E 002°26'714.1
2018-Jun-09 12:00N 41°03' E 002°18'714.1
2018-Jun-09 11:30N 40°56' E 002°20'815.7
2018-Jun-09 10:59N 40°49' E 002°26'2315.7
2018-Jun-09 09:31N 40°30' E 002°41'215.8
2018-Jun-09 09:25N 40°28' E 002°42'715.8
2018-Jun-09 08:59N 40°22' E 002°47'813.2
2018-Jun-09 08:21N 40°14' E 002°48'513.7
2018-Jun-09 08:00N 40°16' E 002°42'815.8
2018-Jun-09 07:29N 40°24' E 002°38'815.9
2018-Jun-09 07:00N 40°31' E 002°33'1015.9
2018-Jun-09 06:23N 40°39' E 002°27'615.9
2018-Jun-09 06:00N 40°45' E 002°24'915.7
2018-Jun-09 05:27N 40°53' E 002°19'713.9
2018-Jun-09 04:58N 40°59' E 002°18'1114.8
2018-Jun-09 04:12N 40°56' E 002°33'415.5
2018-Jun-09 03:55N 40°53' E 002°38'1615.9
2018-Jun-09 02:54N 40°37' E 002°39'615.7
2018-Jun-09 02:30N 40°31' E 002°39'815.8
2018-Jun-09 02:00N 40°23' E 002°39'612.6
2018-Jun-09 01:30N 40°19' E 002°45'815.1
2018-Jun-09 00:59N 40°19' E 002°55'713.9
2018-Jun-09 00:30N 40°25' E 002°58'815.4
2018-Jun-09 00:00N 40°31' E 002°51'816.0
2018-Jun-08 23:30N 40°36' E 002°43'816.0
2018-Jun-08 23:00N 40°42' E 002°36'816.1
2018-Jun-08 22:30N 40°48' E 002°28'816.0
2018-Jun-08 21:59N 40°53' E 002°20'816.0
2018-Jun-08 21:30N 40°58' E 002°12'611.4
2018-Jun-08 20:58N 40°57' E 002°04'714.6
2018-Jun-08 20:30N 40°53' E 002°11'815.5
2018-Jun-08 20:00N 40°50' E 002°21'815.6
2018-Jun-08 19:30N 40°45' E 002°29'2515.1
2018-Jun-08 17:50N 40°30' E 002°56'812.4
2018-Jun-08 17:10N 40°38' E 002°53'216.1
2018-Jun-08 17:00N 40°39' E 002°50'816.1
2018-Jun-08 16:30N 40°44' E 002°41'816.0
2018-Jun-08 16:00N 40°49' E 002°33'815.8
2018-Jun-08 15:30N 40°55' E 002°25'915.4
2018-Jun-08 14:56N 41°01' E 002°18'512.3
2018-Jun-08 14:30N 41°04' E 002°23'815.8
2018-Jun-08 13:59N 40°57' E 002°29'916.1
2018-Jun-08 13:27N 40°49' E 002°33'2616.0
2018-Jun-08 11:51N 40°26' E 002°48'1015.6
2018-Jun-08 11:11N 40°17' E 002°54'315.3
2018-Jun-08 11:00N 40°14' E 002°55'5 8.4
2018-Jun-08 10:22N 40°16' E 002°48'716.0
2018-Jun-08 09:56N 40°22' E 002°45'715.7
2018-Jun-08 09:30N 40°27' E 002°40'915.9
2018-Jun-08 08:58N 40°34' E 002°32'2815.7
2018-Jun-08 07:11N 40°56' E 002°10'414.5
2018-Jun-08 06:53N 40°59' E 002°06'613.8
2018-Jun-08 06:27N 40°55' E 001°60'1615.0
2018-Jun-08 05:23N 40°41' E 001°50'  
Track history (hours):
 
Tides and Currents Weather Stations Pressure Air Temp Water Temp Dewpoint Dewpoint Depression Visibility Wind Speed Wind Dir Waves Ship Positions

Excalibur

Last reported at 2018-Jun-18 00:00 UTC. Time now 2018-Jun-18 00:22 UTC.
Position N 40°58' E 002°22'.

Length 277 m; draft 11.2 m.

Type: Ship. MMSI: 205421000.

Date/timePositionNaut miles runAvg speedWind from/ knotsBaromVisibWave heightAir tempDewpointWater temp
2018-Jun-18 00:00N 40°58' E 002°22'713.9
2018-Jun-17 23:30N 41°01' E 002°30'713.8
2018-Jun-17 23:00N 41°04' E 002°38'7 1.9
2018-Jun-17 19:22N 41°11' E 002°37'513.3
2018-Jun-17 18:59N 41°09' E 002°31'613.3
2018-Jun-17 18:31N 41°06' E 002°24'10 9.6
2018-Jun-17 17:26N 40°59' E 002°14'511.9
2018-Jun-17 17:00N 41°03' E 002°18'713.3
2018-Jun-17 16:30N 41°06' E 002°26'5 1.3
2018-Jun-17 13:03N 41°07' E 002°32'112.8
2018-Jun-17 12:59N 41°07' E 002°31'612.7
2018-Jun-17 12:29N 41°04' E 002°23'2112.4
2018-Jun-17 10:47N 40°48' E 002°05'9 9.0
2018-Jun-17 09:44N 40°50' E 001°53'512.0
2018-Jun-17 09:17N 40°55' E 001°57'413.3
2018-Jun-17 08:57N 40°56' E 002°03'813.8
2018-Jun-17 08:23N 40°59' E 002°12'614.0
2018-Jun-17 07:57N 41°02' E 002°19'613.9
2018-Jun-17 07:30N 41°05' E 002°27'26 5.0
2018-Jun-17 02:22N 40°54' E 002°58'814.0
2018-Jun-17 01:46N 40°50' E 002°48'413.9
2018-Jun-17 01:28N 40°48' E 002°43'713.7
2018-Jun-17 00:57N 40°45' E 002°34'713.6
2018-Jun-17 00:26N 40°42' E 002°26'2312.8
2018-Jun-16 22:40N 40°33' E 001°58'1013.7
2018-Jun-16 21:55N 40°42' E 001°53'813.4
2018-Jun-16 21:19N 40°50' E 001°48'412.1
2018-Jun-16 20:58N 40°53' E 001°52'813.6
2018-Jun-16 20:24N 40°56' E 002°01'613.8
2018-Jun-16 20:00N 40°59' E 002°08'713.8
2018-Jun-16 19:31N 41°02' E 002°16'713.9
2018-Jun-16 19:00N 41°05' E 002°24'713.7
2018-Jun-16 18:30N 41°08' E 002°32'713.9
2018-Jun-16 18:00N 41°11' E 002°40'5 2.1
2018-Jun-16 15:38N 41°10' E 002°34'212.7
2018-Jun-16 15:30N 41°09' E 002°32'712.6
2018-Jun-16 14:59N 41°06' E 002°24'612.5
2018-Jun-16 14:30N 41°04' E 002°17'712.8
2018-Jun-16 13:57N 41°01' E 002°09'613.2
2018-Jun-16 13:30N 40°58' E 002°02'813.4
2018-Jun-16 12:53N 40°54' E 001°52'1110.0
2018-Jun-16 11:47N 40°55' E 002°06'613.2
2018-Jun-16 11:20N 40°58' E 002°13'513.5
2018-Jun-16 11:00N 41°00' E 002°18'713.7
2018-Jun-16 10:30N 41°04' E 002°26'8 1.7
2018-Jun-16 05:41N 41°05' E 002°37'313.9
2018-Jun-16 05:26N 41°04' E 002°33'713.4
2018-Jun-16 04:55N 41°02' E 002°24'1313.1
2018-Jun-16 03:54N 40°56' E 002°09'7 2.5
2018-Jun-16 01:18N 40°49' E 002°07'513.7
2018-Jun-16 00:57N 40°52' E 002°13'713.5
2018-Jun-16 00:24N 40°55' E 002°22'613.6
2018-Jun-15 23:56N 40°58' E 002°29'613.9
2018-Jun-15 23:30N 41°00' E 002°36'2613.7
2018-Jun-15 21:38N 41°15' E 003°05'313.2
2018-Jun-15 21:27N 41°17' E 003°03'2012.1
2018-Jun-15 19:47N 41°11' E 002°38'412.4
2018-Jun-15 19:30N 41°10' E 002°33'612.3
2018-Jun-15 19:00N 41°07' E 002°26'612.7
2018-Jun-15 18:30N 41°05' E 002°18'913.1
2018-Jun-15 17:47N 41°00' E 002°07'913.3
2018-Jun-15 17:05N 40°55' E 001°57'213.0
2018-Jun-15 16:58N 40°54' E 001°56'812.5
2018-Jun-15 16:20N 40°46' E 001°60'411.7
2018-Jun-15 16:00N 40°44' E 001°56'5 9.2
2018-Jun-15 15:26N 40°49' E 001°55'613.4
2018-Jun-15 15:00N 40°52' E 002°02'713.3
2018-Jun-15 14:30N 40°55' E 002°10'713.3
2018-Jun-15 14:00N 40°58' E 002°17'713.4
2018-Jun-15 13:30N 41°01' E 002°25'612.9
2018-Jun-15 13:00N 41°04' E 002°33'5 1.2
2018-Jun-15 08:44N 41°09' E 002°35'313.1
2018-Jun-15 08:30N 41°08' E 002°31'612.7
2018-Jun-15 08:00N 41°05' E 002°24'612.6
2018-Jun-15 07:30N 41°02' E 002°16'812.4
2018-Jun-15 06:50N 40°59' E 002°06'1612.6
2018-Jun-15 05:35N 40°51' E 001°48'812.3
2018-Jun-15 04:56N 40°44' E 001°51'4710.6
2018-Jun-15 00:30N 40°51' E 002°53'20 4.9
2018-Jun-14 20:29N 41°06' E 002°37'613.8
2018-Jun-14 20:01N 41°03' E 002°29'1313.4
2018-Jun-14 19:02N 40°57' E 002°14'013.4
2018-Jun-14 19:00N 40°57' E 002°14'1113.1
2018-Jun-14 18:07N 40°53' E 001°60'212.4
2018-Jun-14 17:56N 40°54' E 001°57'511.4
2018-Jun-14 17:29N 40°58' E 002°02'713.3
2018-Jun-14 16:58N 41°01' E 002°10'613.5
2018-Jun-14 16:31N 41°04' E 002°17'713.2
2018-Jun-14 16:00N 41°07' E 002°25'51 4.9
2018-Jun-14 05:36N 40°16' E 002°33'212.1
2018-Jun-14 05:26N 40°17' E 002°35'4511.7
2018-Jun-14 01:36N 41°01' E 002°20'212.8
2018-Jun-14 01:25N 41°02' E 002°17'4712.4
2018-Jun-13 21:39N 40°17' E 002°32'212.9
2018-Jun-13 21:30N 40°15' E 002°33'712.9
2018-Jun-13 20:57N 40°09' E 002°38'1412.5
2018-Jun-13 19:52N 40°12' E 002°55'1212.6
2018-Jun-13 18:54N 40°19' E 003°08'714.2
2018-Jun-13 18:24N 40°25' E 003°04'3313.8
2018-Jun-13 16:02N 40°55' E 002°46'213.9
2018-Jun-13 15:53N 40°57' E 002°45'613.5
2018-Jun-13 15:28N 41°02' E 002°42'1012.9
2018-Jun-13 14:43N 41°03' E 002°29'313.0
2018-Jun-13 14:30N 41°03' E 002°25'611.1
2018-Jun-13 13:58N 40°60' E 002°19'612.3
2018-Jun-13 13:30N 40°55' E 002°22'712.4
2018-Jun-13 12:58N 40°49' E 002°25'2512.6
2018-Jun-13 10:58N 40°26' E 002°39'613.1
2018-Jun-13 10:29N 40°20' E 002°42'713.6
2018-Jun-13 10:00N 40°14' E 002°45'612.3
2018-Jun-13 09:30N 40°08' E 002°47'611.2
2018-Jun-13 09:00N 40°08' E 002°39'5313.0
2018-Jun-13 04:57N 40°56' E 002°09'2711.3
2018-Jun-13 02:33N 40°34' E 002°31'512.5
2018-Jun-13 02:10N 40°30' E 002°34'412.2
2018-Jun-13 01:49N 40°27' E 002°38'412.3
2018-Jun-13 01:30N 40°24' E 002°41'1411.4
2018-Jun-13 00:16N 40°16' E 002°56'312.7
2018-Jun-12 23:59N 40°19' E 002°57'3813.4
2018-Jun-12 21:11N 40°55' E 002°42'313.9
2018-Jun-12 21:00N 40°57' E 002°41'713.8
2018-Jun-12 20:30N 41°03' E 002°37'611.5
2018-Jun-12 20:01N 41°06' E 002°30'712.9
2018-Jun-12 19:30N 41°04' E 002°22'612.9
2018-Jun-12 19:00N 41°02' E 002°14'712.6
2018-Jun-12 18:26N 40°59' E 002°05'4112.3
2018-Jun-12 15:03N 40°24' E 002°35'112.5
2018-Jun-12 15:00N 40°23' E 002°35'712.8
2018-Jun-12 14:29N 40°18' E 002°40'613.1
2018-Jun-12 14:00N 40°13' E 002°45'5 8.6
2018-Jun-12 13:25N 40°14' E 002°52'613.2
2018-Jun-12 12:57N 40°20' E 002°49'813.3
2018-Jun-12 12:23N 40°27' E 002°46'513.5
2018-Jun-12 12:01N 40°32' E 002°44'713.9
2018-Jun-12 11:30N 40°38' E 002°41'2014.0
2018-Jun-12 10:03N 40°57' E 002°32'213.8
2018-Jun-12 09:57N 40°59' E 002°31'3010.5
2018-Jun-12 07:03N 40°28' E 002°35'113.6
2018-Jun-12 07:01N 40°28' E 002°35'1013.5
2018-Jun-12 06:17N 40°18' E 002°38'413.6
2018-Jun-12 06:00N 40°15' E 002°40'510.7
2018-Jun-12 05:30N 40°10' E 002°37'5013.5
2018-Jun-12 01:47N 40°59' E 002°27'413.0
2018-Jun-12 01:29N 41°03' E 002°25'5712.7
2018-Jun-11 21:01N 40°06' E 002°34'014.1
2018-Jun-11 21:00N 40°06' E 002°34'1313.4
2018-Jun-11 20:00N 40°05' E 002°51'5 9.6
2018-Jun-11 19:27N 40°10' E 002°55'713.5
2018-Jun-11 18:58N 40°11' E 002°46'612.3
2018-Jun-11 18:30N 40°15' E 002°40'713.6
2018-Jun-11 18:00N 40°21' E 002°38'714.1
2018-Jun-11 17:30N 40°28' E 002°36'1414.0
2018-Jun-11 16:31N 40°41' E 002°30'713.6
2018-Jun-11 16:00N 40°48' E 002°30'713.9
2018-Jun-11 15:31N 40°55' E 002°26'714.0
2018-Jun-11 15:01N 41°01' E 002°22'610.5
2018-Jun-11 14:26N 40°58' E 002°15'713.6
2018-Jun-11 13:54N 40°51' E 002°15'1812.7
2018-Jun-11 12:28N 40°37' E 002°31'913.3
2018-Jun-11 11:48N 40°30' E 002°38'413.1
2018-Jun-11 11:29N 40°27' E 002°42'613.2
2018-Jun-11 11:00N 40°22' E 002°47'811.3
2018-Jun-11 10:19N 40°18' E 002°56'1413.4
2018-Jun-11 09:17N 40°31' E 002°51'3513.8
2018-Jun-11 06:45N 41°04' E 002°34'312.4
2018-Jun-11 06:30N 41°05' E 002°30'3112.3
2018-Jun-11 04:00N 40°34' E 002°35'713.6
2018-Jun-11 03:29N 40°29' E 002°40'713.8
2018-Jun-11 03:00N 40°23' E 002°44'711.5
2018-Jun-11 02:22N 40°18' E 002°52'612.8
2018-Jun-11 01:53N 40°25' E 002°51'513.9
2018-Jun-11 01:31N 40°29' E 002°48'814.0
2018-Jun-11 00:57N 40°36' E 002°43'3214.0
2018-Jun-10 22:38N 41°04' E 002°22'213.3
2018-Jun-10 22:28N 41°05' E 002°19'11 5.5
2018-Jun-10 20:23N 40°59' E 002°06'4412.7
2018-Jun-10 16:55N 40°21' E 002°35'613.2
2018-Jun-10 16:30N 40°16' E 002°38'713.5
2018-Jun-10 15:58N 40°09' E 002°37'4112.4
2018-Jun-10 12:39N 40°49' E 002°30'313.7
2018-Jun-10 12:27N 40°52' E 002°30'613.8
2018-Jun-10 12:01N 40°58' E 002°29'713.7
2018-Jun-10 11:30N 41°05' E 002°29'5 9.8
2018-Jun-10 11:00N 41°03' E 002°35'713.5
2018-Jun-10 10:30N 40°57' E 002°38'1713.4
2018-Jun-10 09:14N 40°40' E 002°43'614.0
2018-Jun-10 08:47N 40°34' E 002°44'1013.8
2018-Jun-10 08:03N 40°24' E 002°44'114.1
2018-Jun-10 07:58N 40°23' E 002°43'714.0
2018-Jun-10 07:28N 40°16' E 002°43'510.9
2018-Jun-10 07:00N 40°15' E 002°36'4315.5
2018-Jun-10 04:14N 40°57' E 002°29'415.6
2018-Jun-10 04:00N 41°01' E 002°29'713.3
2018-Jun-10 03:30N 41°07' E 002°32'1414.9
2018-Jun-10 02:34N 40°54' E 002°39'116.4
2018-Jun-10 02:30N 40°53' E 002°39'816.1
2018-Jun-10 02:00N 40°45' E 002°41'816.0
2018-Jun-10 01:30N 40°37' E 002°43'1116.0
2018-Jun-10 00:51N 40°27' E 002°45'716.1
2018-Jun-10 00:26N 40°20' E 002°47'714.9
2018-Jun-09 23:58N 40°14' E 002°45'612.7
2018-Jun-09 23:28N 40°16' E 002°37'1016.1
2018-Jun-09 22:53N 40°25' E 002°33'716.0
2018-Jun-09 22:28N 40°31' E 002°30'716.2
2018-Jun-09 22:00N 40°39' E 002°31'815.8
2018-Jun-09 21:30N 40°47' E 002°30'815.8
2018-Jun-09 21:00N 40°54' E 002°27'815.8
2018-Jun-09 20:30N 41°01' E 002°23'714.0
2018-Jun-09 20:00N 41°06' E 002°30'815.9
2018-Jun-09 19:30N 41°03' E 002°39'2315.3
2018-Jun-09 17:58N 40°40' E 002°32'1315.5
2018-Jun-09 17:07N 40°28' E 002°40'215.8
2018-Jun-09 16:59N 40°27' E 002°41'916.0
2018-Jun-09 16:27N 40°19' E 002°46'913.6
2018-Jun-09 15:49N 40°13' E 002°54'1314.7
2018-Jun-09 14:57N 40°25' E 002°51'816.0
2018-Jun-09 14:27N 40°33' E 002°47'716.0
2018-Jun-09 14:00N 40°40' E 002°44'1316.0
2018-Jun-09 13:13N 40°51' E 002°35'316.2
2018-Jun-09 13:00N 40°53' E 002°32'816.2
2018-Jun-09 12:30N 40°60' E 002°26'714.1
2018-Jun-09 12:00N 41°03' E 002°18'714.1
2018-Jun-09 11:30N 40°56' E 002°20'815.7
2018-Jun-09 10:59N 40°49' E 002°26'2315.7
2018-Jun-09 09:31N 40°30' E 002°41'215.8
2018-Jun-09 09:25N 40°28' E 002°42'715.8
2018-Jun-09 08:59N 40°22' E 002°47'813.2
2018-Jun-09 08:21N 40°14' E 002°48'513.7
2018-Jun-09 08:00N 40°16' E 002°42'815.8
2018-Jun-09 07:29N 40°24' E 002°38'815.9
2018-Jun-09 07:00N 40°31' E 002°33'1015.9
2018-Jun-09 06:23N 40°39' E 002°27'615.9
2018-Jun-09 06:00N 40°45' E 002°24'915.7
2018-Jun-09 05:27N 40°53' E 002°19'713.9
2018-Jun-09 04:58N 40°59' E 002°18'1114.8
2018-Jun-09 04:12N 40°56' E 002°33'415.5
2018-Jun-09 03:55N 40°53' E 002°38'1615.9
2018-Jun-09 02:54N 40°37' E 002°39'615.7
2018-Jun-09 02:30N 40°31' E 002°39'815.8
2018-Jun-09 02:00N 40°23' E 002°39'612.6
2018-Jun-09 01:30N 40°19' E 002°45'815.1
2018-Jun-09 00:59N 40°19' E 002°55'713.9
2018-Jun-09 00:30N 40°25' E 002°58'815.4
2018-Jun-09 00:00N 40°31' E 002°51'816.0
2018-Jun-08 23:30N 40°36' E 002°43'816.0
2018-Jun-08 23:00N 40°42' E 002°36'816.1
2018-Jun-08 22:30N 40°48' E 002°28'816.0
2018-Jun-08 21:59N 40°53' E 002°20'816.0
2018-Jun-08 21:30N 40°58' E 002°12'611.4
2018-Jun-08 20:58N 40°57' E 002°04'714.6
2018-Jun-08 20:30N 40°53' E 002°11'815.5
2018-Jun-08 20:00N 40°50' E 002°21'815.6
2018-Jun-08 19:30N 40°45' E 002°29'2515.1
2018-Jun-08 17:50N 40°30' E 002°56'812.4
2018-Jun-08 17:10N 40°38' E 002°53'216.1
2018-Jun-08 17:00N 40°39' E 002°50'816.1
2018-Jun-08 16:30N 40°44' E 002°41'816.0
2018-Jun-08 16:00N 40°49' E 002°33'815.8
2018-Jun-08 15:30N 40°55' E 002°25'915.4
2018-Jun-08 14:56N 41°01' E 002°18'512.3
2018-Jun-08 14:30N 41°04' E 002°23'815.8
2018-Jun-08 13:59N 40°57' E 002°29'916.1
2018-Jun-08 13:27N 40°49' E 002°33'2616.0
2018-Jun-08 11:51N 40°26' E 002°48'1015.6
2018-Jun-08 11:11N 40°17' E 002°54'315.3
2018-Jun-08 11:00N 40°14' E 002°55'5 8.4
2018-Jun-08 10:22N 40°16' E 002°48'716.0
2018-Jun-08 09:56N 40°22' E 002°45'715.7
2018-Jun-08 09:30N 40°27' E 002°40'915.9
2018-Jun-08 08:58N 40°34' E 002°32'2815.7
2018-Jun-08 07:11N 40°56' E 002°10'414.5
2018-Jun-08 06:53N 40°59' E 002°06'613.8
2018-Jun-08 06:27N 40°55' E 001°60'1615.0
2018-Jun-08 05:23N 40°41' E 001°50'  

Dump ship's entire track history